Time;durP1;ratioP1;P1;durP2;ratioP2;P2;SDS_P1;SDS_P2;PMS_P1;PMS_P2;Temp;Humidity;BMP_temperature;BMP_pressure;BME280_temperature;BME280_humidity;BME280_pressure;Samples;Min_cycle;Max_cycle;Signal;HPM_P1;HPM_P2
2023/07/14 00:02:02;;;;;;;;;;;;;;;25.35;51.17;100398.12;5465400;32;35473;-74
2023/07/14 00:05:04;;;;;;;;;;;;;;;25.41;50.03;100404.75;5447743;32;34824;-70
2023/07/14 00:08:13;;;;;;;;;;;;;;;24.51;52.37;100402.94;5452306;32;34942;-71
2023/07/14 00:11:16;;;;;;;;;;;;;;;24.71;51.93;100398.28;5447282;32;34568;-78
2023/07/14 00:14:18;;;;;;;;;;;;;;;24.52;52.34;100405.47;5451903;32;35410;-70
2023/07/14 00:17:20;;;;;;;;;;;;;;;24.60;52.18;100410.09;5461844;32;35378;-78
2023/07/14 00:20:26;;;;;;;;;;;;;;;24.61;52.31;100409.13;5454490;32;34675;-75
2023/07/14 00:23:28;;;;;;;;;;;;;;;25.08;50.74;100406.28;5454055;32;34545;-75
2023/07/14 00:26:30;;;;;;;;;;;;;;;25.16;50.75;100414.44;5448949;32;34706;-75
2023/07/14 00:29:34;;;;;;;;;;;;;;;24.95;51.19;100405.78;5463853;32;34780;-74
2023/07/14 00:32:37;;;;;;;;;;;;;;;25.20;51.13;100401.53;5447424;32;35499;-75
2023/07/14 00:35:40;;;;;;;;;;;;;;;25.30;51.96;100411.19;5464310;32;35511;-75
2023/07/14 00:38:41;;;;;;;;;;;;;;;24.77;54.72;100413.81;5464269;32;34782;-70
2023/07/14 00:41:43;;;;;;;;;;;;;;;24.99;53.11;100407.16;5445955;32;34032;-74
2023/07/14 00:44:46;;;;;;;;;;;;;;;25.00;53.24;100415.09;5452102;32;34842;-74
2023/07/14 00:47:52;;;;;;;;;;;;;;;24.18;55.39;100418.59;5447687;32;34171;-70
2023/07/14 00:50:57;;;;;;;;;;;;;;;24.79;53.26;100406.44;5465310;32;34270;-69
2023/07/14 00:53:59;;;;;;;;;;;;;;;24.67;54.31;100405.84;5451516;32;34196;-70
2023/07/14 00:57:01;;;;;;;;;;;;;;;25.09;52.59;100408.81;5463434;32;34978;-70
2023/07/14 01:00:15;;;;;;;;;;;;;;;25.21;52.04;100400.53;5460387;32;34736;-75
2023/07/14 01:03:17;;;;;;;;;;;;;;;25.44;51.66;100411.66;5448024;32;34207;-74
2023/07/14 01:06:33;;;;;;;;;;;;;;;24.99;53.56;100407.16;5468773;32;35144;-77
2023/07/14 01:09:35;;;;;;;;;;;;;;;24.92;54.70;100420.34;5449444;32;35155;-74
2023/07/14 01:12:37;;;;;;;;;;;;;;;24.39;55.29;100418.41;5467372;32;34314;-70
2023/07/14 01:15:39;;;;;;;;;;;;;;;24.29;56.03;100420.25;5464195;32;34672;-71
2023/07/14 01:18:45;;;;;;;;;;;;;;;24.19;55.94;100417.59;5465689;32;35407;-75
2023/07/14 01:21:48;;;;;;;;;;;;;;;24.00;56.55;100426.56;5440095;32;35243;-75
2023/07/14 01:24:59;;;;;;;;;;;;;;;24.91;53.95;100429.44;5452768;32;34427;-75
2023/07/14 01:28:03;;;;;;;;;;;;;;;23.94;56.18;100437.88;5454608;32;35334;-75
2023/07/14 01:31:07;;;;;;;;;;;;;;;23.66;57.48;100436.94;5463595;32;35366;-70
2023/07/14 01:34:09;;;;;;;;;;;;;;;23.11;59.50;100443.81;5453835;32;34724;-75
2023/07/14 01:37:12;;;;;;;;;;;;;;;23.33;59.04;100440.87;5464052;32;35104;-70
2023/07/14 01:40:15;;;;;;;;;;;;;;;23.03;60.90;100449.88;5463719;32;34314;-70
2023/07/14 01:43:20;;;;;;;;;;;;;;;22.80;61.81;100454.59;5455250;32;35070;-70
2023/07/14 01:46:22;;;;;;;;;;;;;;;22.22;64.19;100456.16;5448627;32;34674;-70
2023/07/14 01:49:27;;;;;;;;;;;;;;;22.49;63.17;100453.78;5453009;32;34300;-70
2023/07/14 01:52:29;;;;;;;;;;;;;;;22.48;63.69;100454.78;5463840;32;35649;-75
2023/07/14 01:55:34;;;;;;;;;;;;;;;22.05;65.60;100449.59;5437418;32;36972;-70
2023/07/14 01:58:48;;;;;;;;;;;;;;;22.78;63.41;100448.50;5465954;32;35069;-79
2023/07/14 02:01:50;;;;;;;;;;;;;;;22.93;62.68;100446.34;5449641;32;34801;-73
2023/07/14 02:04:52;;;;;;;;;;;;;;;22.67;63.10;100451.31;5453566;32;34297;-75
2023/07/14 02:07:55;;;;;;;;;;;;;;;22.18;64.55;100455.59;5450227;32;34364;-75
2023/07/14 02:10:57;;;;;;;;;;;;;;;22.31;64.98;100455.38;5452645;32;34321;-71
2023/07/14 02:13:59;;;;;;;;;;;;;;;22.45;64.54;100452.34;5450644;32;34817;-75
2023/07/14 02:17:05;;;;;;;;;;;;;;;22.62;63.23;100454.37;5435440;32;35121;-76
2023/07/14 02:20:13;;;;;;;;;;;;;;;22.32;64.51;100463.28;5452178;32;34200;-71
2023/07/14 02:23:21;;;;;;;;;;;;;;;22.05;65.37;100454.94;5448516;32;34366;-75
2023/07/14 02:26:31;;;;;;;;;;;;;;;22.23;64.89;100457.87;5439508;32;35657;-78
2023/07/14 02:29:33;;;;;;;;;;;;;;;22.38;63.55;100452.03;5461465;32;33887;-76
2023/07/14 02:32:35;;;;;;;;;;;;;;;22.25;64.24;100458.59;5464164;32;35972;-76
2023/07/14 02:35:43;;;;;;;;;;;;;;;22.56;63.04;100464.81;5449916;32;34795;-78
2023/07/14 02:38:45;;;;;;;;;;;;;;;22.28;63.30;100467.19;5446733;32;34374;-76
2023/07/14 02:41:47;;;;;;;;;;;;;;;22.67;62.42;100478.09;5451477;32;34238;-70
2023/07/14 02:44:49;;;;;;;;;;;;;;;22.93;61.12;100475.81;5447052;32;34993;-76
2023/07/14 02:47:51;;;;;;;;;;;;;;;22.87;60.95;100489.75;5452265;32;35449;-71
2023/07/14 02:50:53;;;;;;;;;;;;;;;22.83;60.96;100485.63;5449142;32;36156;-69
2023/07/14 02:53:55;;;;;;;;;;;;;;;23.02;60.70;100495.56;5469719;32;35119;-76
2023/07/14 02:56:57;;;;;;;;;;;;;;;22.81;60.92;100504.53;5464960;32;35388;-79
2023/07/14 02:59:59;;;;;;;;;;;;;;;22.68;61.30;100511.94;5464083;32;34241;-71
2023/07/14 03:03:01;;;;;;;;;;;;;;;22.64;61.74;100506.00;5451377;32;35291;-71
2023/07/14 03:06:03;;;;;;;;;;;;;;;22.46;61.55;100504.91;5465645;32;34826;-76
2023/07/14 03:09:05;;;;;;;;;;;;;;;22.31;62.25;100508.94;5449249;32;35387;-74
2023/07/14 03:12:08;;;;;;;;;;;;;;;22.67;60.96;100499.53;5463391;32;34437;-74
2023/07/14 03:15:10;;;;;;;;;;;;;;;22.40;61.79;100497.41;5450248;32;35557;-74
2023/07/14 03:18:14;;;;;;;;;;;;;;;22.87;60.47;100506.69;5467371;32;34640;-75
2023/07/14 03:21:17;;;;;;;;;;;;;;;22.80;60.79;100504.63;5447666;32;35079;-75
2023/07/14 03:24:19;;;;;;;;;;;;;;;22.70;60.56;100500.09;5467968;32;34916;-70
2023/07/14 03:27:21;;;;;;;;;;;;;;;22.80;60.73;100504.63;5463977;32;34501;-78
2023/07/14 03:30:23;;;;;;;;;;;;;;;22.78;60.62;100512.81;5465570;32;34385;-74
2023/07/14 03:33:25;;;;;;;;;;;;;;;22.62;61.22;100515.16;5460868;32;34783;-69
2023/07/14 03:36:29;;;;;;;;;;;;;;;22.67;60.95;100519.13;5465736;32;35578;-71
2023/07/14 03:39:31;;;;;;;;;;;;;;;22.68;61.04;100520.81;5466986;32;34465;-75
2023/07/14 03:42:34;;;;;;;;;;;;;;;23.30;59.18;100510.03;5462439;32;35953;-70
2023/07/14 03:45:36;;;;;;;;;;;;;;;22.69;61.41;100517.16;5460635;32;35725;-75
2023/07/14 03:48:38;;;;;;;;;;;;;;;22.91;60.64;100526.00;5449984;32;34032;-75
2023/07/14 03:51:40;;;;;;;;;;;;;;;22.63;61.67;100524.87;5465393;32;34946;-75
2023/07/14 03:54:42;;;;;;;;;;;;;;;23.19;59.73;100519.06;5447432;32;35454;-73
2023/07/14 03:57:44;;;;;;;;;;;;;;;22.78;60.85;100530.72;5464197;32;35482;-74
2023/07/14 04:01:04;;;;;;;;;;;;;;;22.44;62.42;100526.47;5449817;32;35348;-70
2023/07/14 04:04:06;;;;;;;;;;;;;;;22.44;62.31;100531.00;5463053;32;34911;-70
2023/07/14 04:07:08;;;;;;;;;;;;;;;22.60;62.10;100539.38;5453278;32;35591;-75
2023/07/14 04:10:10;;;;;;;;;;;;;;;22.77;61.41;100537.91;5451578;32;34246;-69
2023/07/14 04:13:12;;;;;;;;;;;;;;;22.92;60.83;100539.25;5468745;32;34252;-69
2023/07/14 04:16:14;;;;;;;;;;;;;;;22.75;61.39;100542.56;5438751;32;34847;-75
2023/07/14 04:19:17;;;;;;;;;;;;;;;22.92;60.92;100549.13;5453895;32;34715;-77
2023/07/14 04:22:19;;;;;;;;;;;;;;;22.58;61.73;100553.91;5467489;32;34375;-75
2023/07/14 04:25:26;;;;;;;;;;;;;;;23.16;60.07;100557.69;5449069;32;34458;-71
2023/07/14 04:28:28;;;;;;;;;;;;;;;22.95;60.94;100560.44;5469279;32;35123;-70
2023/07/14 04:31:30;;;;;;;;;;;;;;;23.87;57.97;100554.00;5464839;32;34257;-79
2023/07/14 04:34:33;;;;;;;;;;;;;;;23.73;58.11;100560.66;5453272;32;33770;-70
2023/07/14 04:37:35;;;;;;;;;;;;;;;23.48;59.04;100560.16;5453067;32;34329;-76
2023/07/14 04:40:40;;;;;;;;;;;;;;;24.07;57.16;100561.06;5453378;32;34318;-69
2023/07/14 04:43:42;;;;;;;;;;;;;;;24.05;56.61;100557.69;5455689;32;35087;-71
2023/07/14 04:46:44;;;;;;;;;;;;;;;23.99;57.24;100561.78;5450017;32;35006;-77
2023/07/14 04:49:47;;;;;;;;;;;;;;;23.64;58.94;100565.03;5442079;32;35185;-76
2023/07/14 04:52:49;;;;;;;;;;;;;;;24.02;57.28;100572.25;5451475;32;34476;-71
2023/07/14 04:55:51;;;;;;;;;;;;;;;24.46;56.45;100574.47;5466519;32;35891;-70
2023/07/14 04:58:53;;;;;;;;;;;;;;;24.29;57.03;100582.25;5468158;32;36057;-71
2023/07/14 05:01:56;;;;;;;;;;;;;;;24.95;55.25;100585.91;5454550;32;34223;-70
2023/07/14 05:05:28;;;;;;;;;;;;;;;25.35;53.56;100588.28;5458253;32;35293;-69
2023/07/14 05:08:30;;;;;;;;;;;;;;;26.22;51.46;100593.06;5451182;32;32881;-70
2023/07/14 05:11:32;;;;;;;;;;;;;;;25.99;51.82;100592.69;5466919;32;34352;-70
2023/07/14 05:14:34;;;;;;;;;;;;;;;26.68;49.37;100602.69;5467387;32;35629;-75
2023/07/14 05:17:37;;;;;;;;;;;;;;;25.12;53.99;100602.16;5450466;32;33824;-69
2023/07/14 05:20:39;;;;;;;;;;;;;;;26.06;51.47;100606.37;5453480;32;35126;-75
2023/07/14 05:23:41;;;;;;;;;;;;;;;24.32;57.07;100616.03;5466817;32;34881;-70
2023/07/14 05:26:44;;;;;;;;;;;;;;;24.50;56.68;100619.72;5467849;32;35643;-75
2023/07/14 05:29:46;;;;;;;;;;;;;;;24.97;55.23;100619.72;5448754;32;34239;-77
2023/07/14 05:32:49;;;;;;;;;;;;;;;25.23;54.69;100621.75;5451191;32;34640;-70
2023/07/14 05:35:51;;;;;;;;;;;;;;;24.49;56.92;100625.22;5451347;32;34292;-76
2023/07/14 05:38:53;;;;;;;;;;;;;;;25.62;53.67;100619.69;5447696;32;34989;-74
2023/07/14 05:41:58;;;;;;;;;;;;;;;25.75;53.29;100624.75;5452964;32;35459;-75
2023/07/14 05:45:00;;;;;;;;;;;;;;;26.51;50.90;100611.66;5438287;32;35369;-75
2023/07/14 05:48:02;;;;;;;;;;;;;;;26.57;50.22;100616.44;5468545;32;34915;-70
2023/07/14 05:51:04;;;;;;;;;;;;;;;25.52;53.55;100625.16;5462783;32;35720;-75
2023/07/14 05:54:06;;;;;;;;;;;;;;;27.68;47.43;100614.62;5442060;32;34773;-76
2023/07/14 05:57:08;;;;;;;;;;;;;;;26.90;48.58;100617.47;5471307;32;35213;-76
2023/07/14 06:00:16;;;;;;;;;;;;;;;27.00;47.90;100610.13;5469813;32;35062;-69
2023/07/14 06:03:19;;;;;;;;;;;;;;;26.63;49.11;100614.94;5457556;32;34264;-75
2023/07/14 06:06:21;;;;;;;;;;;;;;;27.91;46.43;100617.56;5466999;32;34373;-70
2023/07/14 06:09:24;;;;;;;;;;;;;;;26.88;48.40;100613.25;5456899;32;34369;-75
2023/07/14 06:12:26;;;;;;;;;;;;;;;28.06;44.82;100613.19;5460320;32;34249;-76
2023/07/14 06:15:28;;;;;;;;;;;;;;;27.51;45.67;100619.13;5470818;32;34617;-76
2023/07/14 06:18:30;;;;;;;;;;;;;;;27.43;46.52;100619.09;5474866;32;34933;-70
2023/07/14 06:21:32;;;;;;;;;;;;;;;27.39;46.16;100625.00;5452768;32;34200;-75
2023/07/14 06:24:35;;;;;;;;;;;;;;;27.63;45.54;100626.91;5474115;32;34300;-79
2023/07/14 06:27:37;;;;;;;;;;;;;;;28.74;42.98;100624.69;5457777;32;34501;-71
2023/07/14 06:30:39;;;;;;;;;;;;;;;28.73;42.85;100623.84;5472487;32;35654;-76
2023/07/14 06:33:41;;;;;;;;;;;;;;;29.54;40.29;100622.75;5446982;32;35507;-76
2023/07/14 06:36:43;;;;;;;;;;;;;;;30.36;38.68;100628.47;5471261;32;34409;-70
2023/07/14 06:39:45;;;;;;;;;;;;;;;29.75;39.68;100623.97;5474431;32;34366;-71
2023/07/14 06:42:48;;;;;;;;;;;;;;;31.96;35.73;100621.53;5461514;32;34375;-75
2023/07/14 06:45:50;;;;;;;;;;;;;;;32.15;34.90;100619.22;5449060;32;34516;-71
2023/07/14 06:48:52;;;;;;;;;;;;;;;31.96;35.23;100628.84;5474123;32;34275;-71
2023/07/14 06:52:05;;;;;;;;;;;;;;;31.01;36.23;100629.72;5454635;32;34299;-75
2023/07/14 06:55:09;;;;;;;;;;;;;;;32.73;33.38;100625.38;5447248;32;34175;-74
2023/07/14 06:58:11;;;;;;;;;;;;;;;32.10;34.07;100629.81;5473689;32;35408;-70
2023/07/14 07:01:14;;;;;;;;;;;;;;;30.68;35.47;100627.34;5475050;32;35380;-71
2023/07/14 07:04:18;;;;;;;;;;;;;;;31.17;33.70;100631.38;5472086;32;34236;-70
2023/07/14 07:07:24;;;;;;;;;;;;;;;31.53;32.31;100631.47;5430578;32;1012243;-75
2023/07/14 07:10:27;;;;;;;;;;;;;;;30.91;33.64;100616.41;5448080;32;34304;-71
2023/07/14 07:13:29;;;;;;;;;;;;;;;32.72;30.95;100616.37;5475289;32;34345;-76
2023/07/14 07:16:33;;;;;;;;;;;;;;;32.11;30.70;100623.34;5465252;32;35378;-70
2023/07/14 07:19:38;;;;;;;;;;;;;;;32.86;29.36;100625.44;5459952;32;35778;-75
2023/07/14 07:22:40;;;;;;;;;;;;;;;34.91;26.55;100617.81;5462761;32;33426;-75
2023/07/14 07:25:49;;;;;;;;;;;;;;;31.50;32.02;100634.59;5475377;32;34761;-71
2023/07/14 07:28:51;;;;;;;;;;;;;;;34.13;28.32;100625.78;5476228;32;34724;-76
2023/07/14 07:31:53;;;;;;;;;;;;;;;32.75;30.16;100632.28;5446446;32;35459;-70
2023/07/14 07:34:59;;;;;;;;;;;;;;;32.66;30.22;100628.03;5475375;32;34845;-71
2023/07/14 07:38:02;;;;;;;;;;;;;;;33.06;29.77;100628.31;5467176;32;35659;-76
2023/07/14 07:41:05;;;;;;;;;;;;;;;33.09;30.21;100633.34;5444553;32;33670;-71
2023/07/14 07:44:08;;;;;;;;;;;;;;;33.28;30.06;100629.87;5475296;32;34880;-72
2023/07/14 07:47:12;;;;;;;;;;;;;;;35.12;27.29;100624.09;5472991;32;35075;-71
2023/07/14 07:50:14;;;;;;;;;;;;;;;33.10;29.86;100629.59;5472551;32;35133;-77
2023/07/14 07:53:17;;;;;;;;;;;;;;;34.42;27.84;100623.75;5470570;32;34287;-80
2023/07/14 07:56:19;;;;;;;;;;;;;;;33.45;28.49;100621.41;5461057;32;34738;-81
2023/07/14 07:59:21;;;;;;;;;;;;;;;34.01;27.17;100627.47;5461201;32;34237;-77
2023/07/14 08:02:23;;;;;;;;;;;;;;;34.67;26.96;100627.50;5459087;32;34250;-70
2023/07/14 08:05:25;;;;;;;;;;;;;;;34.79;26.09;100619.50;5476549;32;34270;-77
2023/07/14 08:08:27;;;;;;;;;;;;;;;32.91;29.74;100627.59;5473790;32;34192;-69
2023/07/14 08:11:30;;;;;;;;;;;;;;;33.60;29.07;100627.53;5466405;32;33413;-70
2023/07/14 08:14:34;;;;;;;;;;;;;;;33.64;28.83;100623.37;5452917;32;34371;-77
2023/07/14 08:17:39;;;;;;;;;;;;;;;33.82;28.00;100620.06;5471257;32;36825;-80
2023/07/14 08:20:42;;;;;;;;;;;;;;;36.75;23.90;100621.59;5473496;32;34617;-77
2023/07/14 08:23:44;;;;;;;;;;;;;;;36.66;23.92;100604.66;5474477;32;34400;-70
2023/07/14 08:26:46;;;;;;;;;;;;;;;34.97;25.93;100621.59;5471289;32;34211;-71
2023/07/14 08:29:48;;;;;;;;;;;;;;;34.37;26.78;100610.69;5466100;32;35354;-70
2023/07/14 08:32:50;;;;;;;;;;;;;;;37.43;23.16;100604.25;5473984;32;34612;-71
2023/07/14 08:35:53;;;;;;;;;;;;;;;36.90;23.33;100610.31;5466493;32;34303;-75
2023/07/14 08:38:55;;;;;;;;;;;;;;;35.08;25.92;100620.94;5472816;32;34697;-70
2023/07/14 08:41:58;;;;;;;;;;;;;;;37.68;22.67;100616.75;5475604;32;34184;-81
2023/07/14 08:45:08;;;;;;;;;;;;;;;35.00;26.27;100608.34;5457542;32;34712;-78
2023/07/14 08:48:29;;;;;;;;;;;;;;;37.77;22.82;100597.22;5459004;32;35487;-76
2023/07/14 08:51:33;;;;;;;;;;;;;;;36.34;24.58;100604.69;5450638;32;35591;-75
2023/07/14 08:54:45;;;;;;;;;;;;;;;37.26;23.29;100596.59;5472006;32;33985;-71
2023/07/14 08:57:49;;;;;;;;;;;;;;;35.89;25.01;100609.44;5477557;32;34268;-71
2023/07/14 09:00:54;;;;;;;;;;;;;;;36.36;24.56;100607.19;5476316;32;34484;-70
2023/07/14 09:03:59;;;;;;;;;;;;;;;37.38;23.53;100605.75;5473414;32;34325;-71
2023/07/14 09:07:01;;;;;;;;;;;;;;;35.14;25.76;100603.69;5459410;32;35997;-72
2023/07/14 09:10:04;;;;;;;;;;;;;;;36.82;23.36;100593.09;5460167;32;35560;-81
2023/07/14 09:13:10;;;;;;;;;;;;;;;37.49;22.85;100608.81;5475541;32;34769;-77
2023/07/14 09:16:12;;;;;;;;;;;;;;;37.78;22.45;100609.84;5445328;32;34185;-71
2023/07/14 09:19:19;;;;;;;;;;;;;;;38.01;22.00;100598.97;5452285;32;34993;-71
2023/07/14 09:22:51;;;;;;;;;;;;;;;38.85;20.93;100615.31;5466189;32;34296;-71
2023/07/14 09:26:01;;;;;;;;;;;;;;;40.17;19.28;100612.47;5462979;32;34639;-70
2023/07/14 09:29:07;;;;;;;;;;;;;;;40.42;18.39;100609.28;5455350;32;36676;-71
2023/07/14 09:32:09;;;;;;;;;;;;;;;36.14;23.43;100612.22;5460120;32;35069;-71
2023/07/14 09:35:18;;;;;;;;;;;;;;;37.35;22.69;100610.84;5472135;32;34349;-71
2023/07/14 09:38:22;;;;;;;;;;;;;;;38.34;21.58;100603.13;5468108;32;34999;-77
2023/07/14 09:41:28;;;;;;;;;;;;;;;35.28;25.50;100612.66;5450524;32;34242;-77
2023/07/14 09:44:30;;;;;;;;;;;;;;;34.15;26.90;100603.78;5476768;32;35766;-77
2023/07/14 09:47:32;;;;;;;;;;;;;;;35.61;25.49;100598.84;5447002;32;34584;-71
2023/07/14 09:50:36;;;;;;;;;;;;;;;35.39;25.90;100603.78;5475269;32;35787;-77
2023/07/14 09:53:39;;;;;;;;;;;;;;;35.79;25.46;100604.44;5464047;32;35438;-71
2023/07/14 09:56:43;;;;;;;;;;;;;;;37.23;23.46;100591.59;5476378;32;34487;-78
2023/07/14 09:59:49;;;;;;;;;;;;;;;38.67;21.46;100589.63;5460160;32;34419;-71
2023/07/14 10:03:03;;;;;;;;;;;;;;;37.35;23.29;100586.19;5451109;32;34855;-76
2023/07/14 10:06:23;;;;;;;;;;;;;;;38.43;21.51;100585.22;5463847;32;35307;-79
2023/07/14 10:09:25;;;;;;;;;;;;;;;38.55;21.60;100590.69;5463667;32;34690;-71
2023/07/14 10:12:40;;;;;;;;;;;;;;;36.91;22.93;100590.09;5479836;32;34968;-76
2023/07/14 10:15:42;;;;;;;;;;;;;;;37.35;22.42;100586.19;5461049;32;34272;-72
2023/07/14 10:18:51;;;;;;;;;;;;;;;39.56;20.18;100581.06;5465614;32;34473;-70
2023/07/14 10:21:58;;;;;;;;;;;;;;;38.31;20.91;100570.62;5463126;32;34962;-71
2023/07/14 10:25:01;;;;;;;;;;;;;;;38.32;21.39;100575.03;5473947;32;35223;-77
2023/07/14 10:28:12;;;;;;;;;;;;;;;38.94;20.40;100569.91;5465468;32;34263;-71
2023/07/14 10:31:14;;;;;;;;;;;;;;;35.99;24.46;100587.09;5472079;32;34751;-71
2023/07/14 10:34:17;;;;;;;;;;;;;;;39.17;20.05;100569.03;5476221;32;35586;-77
2023/07/14 10:37:27;;;;;;;;;;;;;;;38.00;21.87;100575.38;5476246;32;34569;-72
2023/07/14 10:40:29;;;;;;;;;;;;;;;39.56;20.54;100572.81;5460352;32;35220;-71
2023/07/14 10:43:40;;;;;;;;;;;;;;;37.89;22.09;100566.03;5467757;32;35108;-72
2023/07/14 10:46:44;;;;;;;;;;;;;;;39.08;20.63;100563.03;5465960;32;34782;-77
2023/07/14 10:49:50;;;;;;;;;;;;;;;37.56;22.27;100569.25;5459847;32;34287;-78
2023/07/14 10:52:53;;;;;;;;;;;;;;;39.73;19.70;100568.19;5454716;32;34908;-72
2023/07/14 10:55:56;;;;;;;;;;;;;;;40.34;18.80;100554.66;5455052;32;34595;-72
2023/07/14 10:59:13;;;;;;;;;;;;;;;40.20;19.19;100554.19;5460680;32;34962;-71
2023/07/14 11:02:47;;;;;;;;;;;;;;;41.58;17.84;100547.72;5458013;32;35023;-77
2023/07/14 11:05:55;;;;;;;;;;;;;;;41.29;17.99;100538.87;5452885;32;35355;-77
2023/07/14 11:08:57;;;;;;;;;;;;;;;38.76;20.77;100542.59;5473881;32;33097;-72
2023/07/14 11:12:13;;;;;;;;;;;;;;;40.34;19.14;100535.37;5468003;32;34241;-78
2023/07/14 11:15:15;;;;;;;;;;;;;;;41.79;17.59;100527.53;5458563;32;34499;-80
2023/07/14 11:18:56;;;;;;;;;;;;;;;40.24;19.29;100532.47;5469090;32;34788;-81
2023/07/14 11:22:05;;;;;;;;;;;;;;;42.19;16.61;100523.47;5412829;32;34170;-77
2023/07/14 11:25:22;;;;;;;;;;;;;;;37.05;21.97;100534.09;5389733;32;35246;-81
2023/07/14 11:28:24;;;;;;;;;;;;;;;39.84;19.59;100532.63;5473475;32;34288;-77
2023/07/14 11:31:29;;;;;;;;;;;;;;;40.24;19.05;100518.69;5475795;32;33096;-72
2023/07/14 11:34:33;;;;;;;;;;;;;;;39.36;19.66;100520.22;5470241;32;34244;-72
2023/07/14 11:37:37;;;;;;;;;;;;;;;40.73;18.55;100514.19;5453411;32;35765;-73
2023/07/14 11:40:40;;;;;;;;;;;;;;;39.83;19.44;100522.72;5468253;32;35263;-72
2023/07/14 11:43:45;;;;;;;;;;;;;;;41.25;17.86;100505.44;5469221;32;35302;-77
2023/07/14 11:46:49;;;;;;;;;;;;;;;40.22;18.40;100507.94;5439750;32;34450;-76
2023/07/14 11:49:52;;;;;;;;;;;;;;;40.77;17.92;100503.47;5440778;32;34772;-78
2023/07/14 11:53:07;;;;;;;;;;;;;;;42.81;16.09;100505.28;5453868;32;33770;-78
2023/07/14 11:56:35;;;;;;;;;;;;;;;40.40;18.46;100503.25;5465865;32;34378;-79
2023/07/14 11:59:38;;;;;;;;;;;;;;;39.62;18.58;100502.28;5439839;32;35202;-72
2023/07/14 12:02:40;;;;;;;;;;;;;;;36.86;21.87;100506.72;5451465;32;36998;-76
2023/07/14 12:05:43;;;;;;;;;;;;;;;37.52;22.17;100510.47;5467472;32;34222;-71
2023/07/14 12:09:10;;;;;;;;;;;;;;;39.15;19.64;100508.81;5468684;32;34189;-76
2023/07/14 12:12:15;;;;;;;;;;;;;;;38.58;19.80;100500.47;5466143;32;34824;-73
2023/07/14 12:15:43;;;;;;;;;;;;;;;34.87;24.78;100506.50;5454035;32;35725;-82
2023/07/14 12:18:59;;;;;;;;;;;;;;;37.36;22.41;100498.28;5438832;32;34494;-81
2023/07/14 12:22:05;;;;;;;;;;;;;;;36.62;23.10;100502.13;5468215;32;35998;-77
2023/07/14 12:25:10;;;;;;;;;;;;;;;33.66;26.89;100490.44;5469265;32;35864;-79
2023/07/14 12:28:17;;;;;;;;;;;;;;;34.27;26.04;100492.16;5464575;32;34593;-73
2023/07/14 12:31:20;;;;;;;;;;;;;;;34.57;25.99;100479.72;5451030;32;34198;-72
2023/07/14 12:34:23;;;;;;;;;;;;;;;32.87;28.47;100483.75;5450368;32;35208;-78
2023/07/14 12:37:25;;;;;;;;;;;;;;;34.37;25.57;100484.34;5468319;32;35191;-77
2023/07/14 12:40:27;;;;;;;;;;;;;;;33.85;26.51;100477.87;5452871;32;34724;-72
2023/07/14 12:43:34;;;;;;;;;;;;;;;34.02;25.64;100483.78;5451475;32;35107;-78
2023/07/14 12:46:38;;;;;;;;;;;;;;;33.73;26.26;100479.56;5454749;32;35660;-76
2023/07/14 12:49:42;;;;;;;;;;;;;;;32.31;28.24;100494.66;5465461;32;34662;-80
2023/07/14 12:52:44;;;;;;;;;;;;;;;32.86;27.77;100479.34;5453062;32;35507;-71
2023/07/14 12:55:46;;;;;;;;;;;;;;;32.19;28.46;100476.38;5469436;32;34979;-70
2023/07/14 12:58:52;;;;;;;;;;;;;;;33.54;26.47;100478.50;5464132;32;34171;-71
2023/07/14 13:01:54;;;;;;;;;;;;;;;33.49;26.34;100479.12;5470066;32;34966;-71
2023/07/14 13:04:56;;;;;;;;;;;;;;;32.75;27.72;100473.59;5466466;32;34600;-70
2023/07/14 13:07:58;;;;;;;;;;;;;;;31.88;28.91;100466.78;5472085;32;34374;-79
2023/07/14 13:11:00;;;;;;;;;;;;;;;32.21;27.92;100477.87;5453371;32;34478;-76
2023/07/14 13:14:02;;;;;;;;;;;;;;;31.77;28.73;100476.25;5443815;32;34393;-70
2023/07/14 13:17:04;;;;;;;;;;;;;;;32.22;28.96;100468.69;5458384;32;35023;-78
2023/07/14 13:20:25;;;;;;;;;;;;;;;33.29;27.45;100461.88;5466009;32;36191;-71
2023/07/14 13:23:28;;;;;;;;;;;;;;;32.21;29.13;100458.00;5456806;32;34192;-77
2023/07/14 13:26:30;;;;;;;;;;;;;;;32.07;29.17;100463.34;5467711;32;34533;-70
2023/07/14 13:29:32;;;;;;;;;;;;;;;33.71;25.72;100452.53;5469316;32;34710;-70
2023/07/14 13:32:34;;;;;;;;;;;;;;;33.46;26.02;100455.00;5439393;32;34775;-80
2023/07/14 13:35:37;;;;;;;;;;;;;;;33.21;25.98;100448.44;5454401;32;34574;-76
2023/07/14 13:38:40;;;;;;;;;;;;;;;32.31;27.01;100440.28;5459082;32;35448;-81
2023/07/14 13:41:46;;;;;;;;;;;;;;;33.34;25.78;100449.31;5443510;32;34847;-72
2023/07/14 13:44:49;;;;;;;;;;;;;;;33.59;25.68;100440.56;5467887;32;36236;-81
2023/07/14 13:47:53;;;;;;;;;;;;;;;33.56;25.41;100430.94;5439727;32;35342;-80
2023/07/14 13:50:55;;;;;;;;;;;;;;;34.44;23.53;100439.66;5451880;32;34693;-77
2023/07/14 13:53:57;;;;;;;;;;;;;;;33.33;25.26;100436.75;5452978;32;35233;-70
2023/07/14 13:56:59;;;;;;;;;;;;;;;32.67;25.19;100428.38;5465245;32;34704;-71
2023/07/14 14:00:02;;;;;;;;;;;;;;;33.38;25.07;100442.41;5470433;32;34764;-77
2023/07/14 14:03:04;;;;;;;;;;;;;;;33.58;24.73;100436.16;5467052;32;34056;-71
2023/07/14 14:06:11;;;;;;;;;;;;;;;33.39;25.14;100446.00;5469326;32;34859;-77
2023/07/14 14:09:17;;;;;;;;;;;;;;;33.20;25.84;100436.72;5439194;32;34544;-71
2023/07/14 14:12:22;;;;;;;;;;;;;;;32.33;26.80;100430.09;5466738;32;34692;-71
2023/07/14 14:15:28;;;;;;;;;;;;;;;32.44;27.13;100430.53;5468165;32;34339;-71
2023/07/14 14:18:31;;;;;;;;;;;;;;;32.77;27.16;100428.81;5448960;32;34815;-77
2023/07/14 14:21:35;;;;;;;;;;;;;;;32.14;28.15;100428.06;5466862;32;35934;-71
2023/07/14 14:24:36;;;;;;;;;;;;;;;32.08;28.68;100417.97;5463334;32;34238;-71
2023/07/14 14:27:39;;;;;;;;;;;;;;;32.74;27.77;100412.91;5468015;32;35212;-71
2023/07/14 14:30:42;;;;;;;;;;;;;;;32.38;27.95;100417.75;5461402;32;34777;-70
2023/07/14 14:33:45;;;;;;;;;;;;;;;32.25;28.02;100419.31;5463424;32;34260;-71
2023/07/14 14:36:48;;;;;;;;;;;;;;;31.65;29.30;100422.63;5468549;32;35143;-77
2023/07/14 14:39:51;;;;;;;;;;;;;;;32.60;26.94;100422.91;5462460;32;34280;-76
2023/07/14 14:42:54;;;;;;;;;;;;;;;31.78;27.68;100411.88;5454544;32;34236;-78
2023/07/14 14:45:57;;;;;;;;;;;;;;;31.93;28.01;100401.75;5450599;32;34350;-76
2023/07/14 14:48:59;;;;;;;;;;;;;;;32.39;27.30;100403.94;5454388;32;35521;-70
2023/07/14 14:52:03;;;;;;;;;;;;;;;31.82;27.42;100407.78;5467100;32;35336;-71
2023/07/14 14:55:05;;;;;;;;;;;;;;;32.45;26.98;100408.56;5464003;32;34900;-77
2023/07/14 14:58:16;;;;;;;;;;;;;;;31.70;28.61;100409.31;5467387;32;35512;-70
2023/07/14 15:01:30;;;;;;;;;;;;;;;32.45;27.70;100403.13;5464325;32;34093;-75
2023/07/14 15:04:34;;;;;;;;;;;;;;;32.58;27.36;100396.91;5466161;32;34385;-76
2023/07/14 15:07:36;;;;;;;;;;;;;;;32.57;27.38;100396.06;5446920;32;34721;-71
2023/07/14 15:10:38;;;;;;;;;;;;;;;31.79;28.50;100389.97;5464689;32;34459;-70
2023/07/14 15:13:40;;;;;;;;;;;;;;;32.41;25.05;100393.72;5455696;32;34312;-70
2023/07/14 15:16:45;;;;;;;;;;;;;;;32.10;25.30;100390.59;5448115;32;34870;-76
2023/07/14 15:19:50;;;;;;;;;;;;;;;32.62;24.32;100387.31;5467421;32;35776;-76
2023/07/14 15:22:54;;;;;;;;;;;;;;;32.11;25.31;100387.66;5431496;32;35816;-76
2023/07/14 15:25:57;;;;;;;;;;;;;;;32.08;25.57;100390.78;5467805;32;34330;-77
2023/07/14 15:28:59;;;;;;;;;;;;;;;31.96;25.86;100385.06;5445767;32;35242;-71
2023/07/14 15:32:01;;;;;;;;;;;;;;;31.52;26.61;100386.19;5443374;32;34690;-71
2023/07/14 15:35:09;;;;;;;;;;;;;;;31.52;26.44;100377.19;5466227;32;34615;-77
2023/07/14 15:38:11;;;;;;;;;;;;;;;31.61;26.53;100378.72;5455357;32;35286;-76
2023/07/14 15:41:20;;;;;;;;;;;;;;;31.36;26.49;100369.31;5449288;32;34996;-79
2023/07/14 15:44:23;;;;;;;;;;;;;;;31.85;26.16;100376.63;5461630;32;34851;-78
2023/07/14 15:47:25;;;;;;;;;;;;;;;32.06;25.14;100376.53;5466418;32;34382;-77